Time;durP1;ratioP1;P1;durP2;ratioP2;P2;SDS_P1;SDS_P2;PMS_P1;PMS_P2;Temp;Humidity;BMP_temperature;BMP_pressure;BME280_temperature;BME280_humidity;BME280_pressure;Samples;Min_cycle;Max_cycle;Signal;HPM_P1;HPM_P2
2022/11/25 00:01:13;;;;;;;14.50;4.20;;;6.60;99.90;;;;;;4982460;28;20034;-66
2022/11/25 00:03:40;;;;;;;17.48;5.25;;;6.60;99.90;;;;;;4982008;28;20046;-67
2022/11/25 00:06:19;;;;;;;13.63;4.47;;;6.70;99.90;;;;;;4989205;28;20310;-66
2022/11/25 00:08:47;;;;;;;15.75;4.40;;;6.80;99.90;;;;;;5001884;28;20045;-67
2022/11/25 00:11:13;;;;;;;15.93;4.75;;;6.90;99.90;;;;;;5001038;28;20185;-66
2022/11/25 00:13:40;;;;;;;15.02;4.93;;;7.30;99.90;;;;;;5002514;28;20042;-66
2022/11/25 00:16:11;;;;;;;15.50;4.72;;;7.00;99.90;;;;;;5002055;28;20113;-67
2022/11/25 00:18:37;;;;;;;15.30;3.85;;;6.90;99.90;;;;;;5000964;28;20184;-66
2022/11/25 00:21:12;;;;;;;14.38;4.50;;;7.00;99.90;;;;;;4983366;28;20540;-67
2022/11/25 00:23:38;;;;;;;14.13;4.57;;;7.00;99.90;;;;;;5002130;28;20034;-67
2022/11/25 00:26:12;;;;;;;11.95;3.50;;;7.10;99.90;;;;;;5000889;28;20454;-67
2022/11/25 00:28:38;;;;;;;14.23;3.88;;;6.90;99.90;;;;;;5001986;28;20081;-66
2022/11/25 00:31:09;;;;;;;11.77;4.22;;;7.10;99.90;;;;;;4983920;28;20049;-67
2022/11/25 00:33:36;;;;;;;12.05;3.17;;;7.00;99.90;;;;;;5001765;28;20133;-66
2022/11/25 00:36:03;;;;;;;15.68;3.72;;;7.10;99.90;;;;;;5000843;28;20302;-66
2022/11/25 00:38:29;;;;;;;13.40;4.53;;;7.00;99.90;;;;;;5001849;28;20038;-66
2022/11/25 00:46:23;;;;;;;11.18;2.53;;;7.30;99.90;;;;;;5001702;28;20048;-67
2022/11/25 00:48:49;;;;;;;15.10;4.30;;;7.10;99.90;;;;;;5000392;28;20560;-67
2022/11/25 00:51:14;;;;;;;13.55;4.13;;;7.40;99.90;;;;;;5000650;28;20091;-67
2022/11/25 00:53:40;;;;;;;15.55;4.95;;;7.20;99.90;;;;;;4983931;28;20078;-67
2022/11/25 00:56:11;;;;;;;10.85;3.65;;;7.00;99.90;;;;;;4984469;28;20488;-67
2022/11/25 00:58:38;;;;;;;13.27;4.25;;;7.20;99.90;;;;;;5002559;28;20054;-67
2022/11/25 01:01:04;;;;;;;13.40;3.95;;;7.60;99.90;;;;;;5001771;28;20046;-66
2022/11/25 01:03:30;;;;;;;15.43;4.90;;;7.10;99.90;;;;;;5002354;28;20092;-66
2022/11/25 01:06:00;;;;;;;14.35;4.20;;;7.20;99.90;;;;;;4992879;28;20069;-66
2022/11/25 01:08:27;;;;;;;12.25;4.05;;;7.00;99.90;;;;;;4982153;28;20136;-66
2022/11/25 01:11:07;;;;;;;15.23;4.63;;;7.00;99.90;;;;;;4982696;28;20045;-66
2022/11/25 01:13:33;;;;;;;12.35;3.45;;;7.30;99.90;;;;;;4981765;28;20050;-66
2022/11/25 01:16:03;;;;;;;13.70;4.07;;;7.00;99.90;;;;;;4982492;28;20115;-67
2022/11/25 01:18:29;;;;;;;12.48;3.72;;;7.10;99.90;;;;;;4982457;28;20082;-66
2022/11/25 01:21:03;;;;;;;14.98;3.72;;;7.20;99.90;;;;;;4966555;28;20436;-67
2022/11/25 01:23:29;;;;;;;12.13;3.85;;;7.10;99.90;;;;;;4985570;28;20335;-67
2022/11/25 01:25:54;;;;;;;18.85;4.18;;;7.10;99.90;;;;;;4985700;28;20065;-66
2022/11/25 01:28:20;;;;;;;12.10;3.90;;;7.10;99.90;;;;;;4983071;28;20489;-66
2022/11/25 01:30:45;;;;;;;13.98;3.55;;;7.00;99.90;;;;;;4985434;28;20049;-67
2022/11/25 01:33:11;;;;;;;13.00;4.20;;;7.20;99.90;;;;;;4985996;28;20049;-67
2022/11/25 01:35:37;;;;;;;14.68;4.07;;;7.10;99.90;;;;;;4967868;28;20049;-67
2022/11/25 01:38:03;;;;;;;13.90;3.75;;;7.30;99.90;;;;;;4984704;28;20100;-66
2022/11/25 01:40:29;;;;;;;16.50;4.35;;;7.00;99.90;;;;;;4985411;28;20050;-67
2022/11/25 01:42:54;;;;;;;15.23;4.40;;;7.10;99.90;;;;;;4985783;28;20069;-66
2022/11/25 01:45:23;;;;;;;17.95;4.88;;;7.50;99.90;;;;;;4985737;28;20089;-67
2022/11/25 01:47:57;;;;;;;15.70;3.85;;;7.10;99.90;;;;;;4985265;28;20061;-67
2022/11/25 01:50:26;;;;;;;16.67;4.78;;;7.30;99.90;;;;;;4985258;28;20410;-66
2022/11/25 01:52:54;;;;;;;15.18;4.13;;;7.00;99.90;;;;;;4983979;28;20042;-67
2022/11/25 01:55:22;;;;;;;13.15;3.50;;;7.20;99.90;;;;;;4985498;28;20062;-66
2022/11/25 01:58:14;;;;;;;15.70;4.10;;;7.10;99.90;;;;;;4984245;28;22126;-67
2022/11/25 02:00:40;;;;;;;15.93;4.13;;;7.10;99.90;;;;;;4985029;28;20046;-67
2022/11/25 02:03:07;;;;;;;17.98;4.85;;;8.00;99.90;;;;;;4984931;28;20039;-67
2022/11/25 02:05:48;;;;;;;18.63;4.30;;;8.50;99.90;;;;;;4992133;28;20050;-67
2022/11/25 02:08:15;;;;;;;8.90;3.40;;;7.20;99.90;;;;;;4985336;28;20050;-66
2022/11/25 02:10:43;;;;;;;14.15;4.05;;;7.20;99.90;;;;;;4985429;28;20077;-67
2022/11/25 02:13:09;;;;;;;14.07;4.45;;;7.70;99.90;;;;;;5071095;23;20516;-69
2022/11/25 02:15:35;;;;;;;11.98;3.60;;;7.00;99.90;;;;;;5009800;28;20042;-69
2022/11/25 02:18:01;;;;;;;13.65;4.63;;;7.10;99.90;;;;;;5003298;28;20044;-68
2022/11/25 02:20:27;;;;;;;14.35;4.18;;;7.30;99.90;;;;;;5022389;28;20065;-68
2022/11/25 02:23:14;;;;;;;12.38;3.45;;;8.00;99.90;;;;;;5024401;28;20102;-67
2022/11/25 02:25:42;;;;;;;15.52;4.60;;;7.00;99.90;;;;;;5023212;28;20041;-67
2022/11/25 02:28:12;;;;;;;13.18;3.80;;;7.10;99.90;;;;;;5022313;28;20068;-66
2022/11/25 02:30:38;;;;;;;11.10;3.00;;;7.20;99.90;;;;;;5022640;28;20053;-67
2022/11/25 02:33:04;;;;;;;14.85;3.67;;;7.00;99.90;;;;;;5004969;28;20045;-67
2022/11/25 02:35:41;;;;;;;18.63;3.75;;;7.30;99.90;;;;;;5021586;28;20047;-67
2022/11/25 02:38:17;;;;;;;11.30;4.07;;;7.30;99.90;;;;;;5004497;28;20037;-67
2022/11/25 02:40:51;;;;;;;11.85;3.65;;;7.10;99.90;;;;;;5004950;28;20840;-66
2022/11/25 02:43:17;;;;;;;12.35;3.90;;;7.30;99.90;;;;;;5004361;28;20539;-67
2022/11/25 02:45:59;;;;;;;11.95;3.80;;;7.20;99.90;;;;;;5005569;28;20235;-67
2022/11/25 02:48:27;;;;;;;10.25;3.05;;;7.40;99.90;;;;;;5022910;28;20049;-67
2022/11/25 02:50:53;;;;;;;13.93;3.33;;;7.10;99.90;;;;;;5021914;28;20041;-67
2022/11/25 02:53:20;;;;;;;13.32;3.90;;;7.10;99.90;;;;;;5021419;28;20483;-67
2022/11/25 02:55:46;;;;;;;16.08;4.90;;;7.10;99.90;;;;;;5023189;28;20048;-67
2022/11/25 02:58:12;;;;;;;9.70;3.05;;;7.10;99.90;;;;;;5023438;28;20037;-67
2022/11/25 03:00:39;;;;;;;16.65;4.30;;;7.60;99.90;;;;;;5022475;28;20534;-66
2022/11/25 03:03:05;;;;;;;15.07;3.70;;;7.00;99.90;;;;;;5005486;28;20041;-65
2022/11/25 03:05:31;;;;;;;12.68;4.43;;;7.00;99.90;;;;;;5003894;28;20092;-65
2022/11/25 03:07:57;;;;;;;16.13;4.70;;;7.00;99.90;;;;;;5022489;28;20041;-66
2022/11/25 03:10:23;;;;;;;13.35;4.05;;;6.90;99.90;;;;;;5021452;28;20071;-66
2022/11/25 03:12:49;;;;;;;15.30;4.45;;;7.00;99.90;;;;;;5022839;28;20065;-66
2022/11/25 03:15:15;;;;;;;16.83;4.45;;;7.00;99.90;;;;;;5022599;28;20444;-66
2022/11/25 03:17:41;;;;;;;16.63;4.68;;;6.70;99.90;;;;;;5003630;28;20163;-66
2022/11/25 03:20:07;;;;;;;14.25;4.47;;;6.70;99.90;;;;;;5021437;28;20689;-66
2022/11/25 03:22:33;;;;;;;12.60;4.60;;;6.90;99.90;;;;;;5022549;28;20519;-66
2022/11/25 03:24:59;;;;;;;14.45;4.22;;;7.00;99.90;;;;;;5004695;28;20049;-65
2022/11/25 03:27:25;;;;;;;14.00;4.05;;;6.70;99.90;;;;;;5003397;28;20107;-66
2022/11/25 03:29:51;;;;;;;16.42;5.30;;;7.00;99.90;;;;;;5021859;28;20043;-67
2022/11/25 03:32:16;;;;;;;15.75;3.95;;;7.10;99.90;;;;;;5021032;28;20053;-66
2022/11/25 03:34:42;;;;;;;17.08;4.65;;;7.00;99.90;;;;;;5019273;28;20048;-67
2022/11/25 03:37:08;;;;;;;12.75;4.43;;;6.70;99.90;;;;;;5020395;28;20041;-66
2022/11/25 03:39:33;;;;;;;17.10;5.68;;;6.90;99.90;;;;;;5022403;28;20506;-67
2022/11/25 03:41:59;;;;;;;11.20;4.20;;;7.20;99.90;;;;;;5021935;28;20136;-66
2022/11/25 03:44:25;;;;;;;12.88;4.63;;;6.90;99.90;;;;;;5019915;28;20066;-66
2022/11/25 03:46:50;;;;;;;20.95;6.38;;;7.00;99.90;;;;;;5021968;28;20086;-67
2022/11/25 03:49:16;;;;;;;11.80;3.80;;;6.70;99.90;;;;;;5003435;28;20053;-66
2022/11/25 03:51:42;;;;;;;13.00;4.40;;;6.90;99.90;;;;;;5021873;28;20036;-67
2022/11/25 03:54:08;;;;;;;17.52;5.93;;;6.70;99.90;;;;;;5021299;28;20049;-65
2022/11/25 03:56:34;;;;;;;14.77;4.78;;;7.30;99.90;;;;;;5022581;28;20045;-66
2022/11/25 03:59:00;;;;;;;22.50;6.05;;;6.90;99.90;;;;;;5021526;28;20554;-66
2022/11/25 04:01:25;;;;;;;13.52;4.40;;;6.90;99.90;;;;;;5003472;28;20064;-66
2022/11/25 04:03:51;;;;;;;20.80;5.30;;;7.00;99.90;;;;;;5020371;28;20041;-66
2022/11/25 04:06:18;;;;;;;17.98;5.55;;;7.40;99.90;;;;;;5004318;28;20103;-66
2022/11/25 04:08:45;;;;;;;16.92;5.55;;;7.00;99.90;;;;;;5022090;28;20573;-66
2022/11/25 04:11:11;;;;;;;16.50;5.45;;;7.10;99.90;;;;;;5021689;28;20045;-65
2022/11/25 04:13:36;;;;;;;14.88;4.97;;;7.00;99.90;;;;;;5021540;28;20789;-65
2022/11/25 04:16:02;;;;;;;17.17;6.07;;;7.70;99.90;;;;;;5021897;28;20054;-66
2022/11/25 04:18:28;;;;;;;17.63;5.93;;;7.00;99.90;;;;;;5020823;28;20132;-67
2022/11/25 04:20:54;;;;;;;15.98;5.82;;;6.80;99.90;;;;;;5022105;28;20482;-66
2022/11/25 04:23:19;;;;;;;16.40;6.15;;;7.50;99.90;;;;;;5020636;28;20048;-67
2022/11/25 04:25:49;;;;;;;16.00;5.53;;;7.20;99.90;;;;;;5022560;28;20041;-66
2022/11/25 04:28:14;;;;;;;19.83;6.45;;;6.90;99.90;;;;;;5021693;28;20468;-66
2022/11/25 04:30:40;;;;;;;17.13;5.57;;;6.80;99.90;;;;;;5019912;28;20077;-66
2022/11/25 04:33:06;;;;;;;17.00;5.40;;;7.00;99.90;;;;;;5004366;28;20056;-66
2022/11/25 04:35:31;;;;;;;17.75;6.22;;;6.90;99.90;;;;;;5020670;28;20045;-67
2022/11/25 04:37:57;;;;;;;19.30;5.70;;;7.00;99.90;;;;;;5021171;28;20547;-66
2022/11/25 04:40:23;;;;;;;17.08;5.97;;;7.00;99.90;;;;;;5020813;28;20088;-67
2022/11/25 04:42:49;;;;;;;20.35;6.53;;;6.80;99.90;;;;;;5021289;28;20062;-66
2022/11/25 04:45:16;;;;;;;18.02;6.55;;;6.80;99.90;;;;;;5003665;28;20046;-67
2022/11/25 04:47:44;;;;;;;19.60;6.05;;;6.80;99.90;;;;;;5021209;28;20124;-66
2022/11/25 04:50:17;;;;;;;16.50;5.97;;;6.90;99.90;;;;;;5021227;28;20041;-67
2022/11/25 04:52:43;;;;;;;14.02;5.82;;;7.00;99.90;;;;;;5022005;28;20046;-67
2022/11/25 04:55:09;;;;;;;16.98;6.60;;;7.00;99.90;;;;;;5022340;28;20494;-66
2022/11/25 04:57:36;;;;;;;21.52;6.38;;;6.80;99.90;;;;;;5008364;28;20439;-67
2022/11/25 05:00:03;;;;;;;17.35;6.43;;;7.10;99.90;;;;;;5007499;28;20135;-65
2022/11/25 05:02:28;;;;;;;13.70;6.03;;;6.80;99.90;;;;;;5023755;28;20088;-66
2022/11/25 05:04:56;;;;;;;11.80;5.30;;;7.10;99.90;;;;;;5024609;28;20077;-67
2022/11/25 05:07:24;;;;;;;16.40;6.75;;;7.00;99.90;;;;;;5024790;28;20052;-66
2022/11/25 05:09:49;;;;;;;19.85;6.82;;;7.00;99.90;;;;;;5007467;28;20131;-66
2022/11/25 05:12:18;;;;;;;17.48;5.82;;;7.00;99.90;;;;;;5023707;28;20067;-67
2022/11/25 05:14:44;;;;;;;18.52;6.30;;;6.80;99.90;;;;;;5025267;28;20097;-66
2022/11/25 05:17:16;;;;;;;17.50;6.45;;;6.90;99.90;;;;;;5007678;28;20365;-66
2022/11/25 05:19:43;;;;;;;22.50;6.50;;;7.00;99.90;;;;;;5022671;28;20060;-67
2022/11/25 05:22:17;;;;;;;15.20;5.53;;;7.00;99.90;;;;;;5023819;28;20100;-66
2022/11/25 05:24:43;;;;;;;18.77;6.60;;;7.20;99.90;;;;;;5006690;28;20045;-66
2022/11/25 05:27:10;;;;;;;20.95;6.25;;;7.00;99.90;;;;;;5024585;28;20038;-67
2022/11/25 05:29:36;;;;;;;17.92;5.90;;;7.10;99.90;;;;;;5023505;28;20294;-66
2022/11/25 05:32:02;;;;;;;15.98;5.85;;;7.10;99.90;;;;;;5024416;28;20034;-67
2022/11/25 05:34:28;;;;;;;17.45;5.85;;;7.00;99.90;;;;;;5022979;28;20153;-66
2022/11/25 05:36:54;;;;;;;16.85;6.63;;;7.50;99.90;;;;;;5024433;28;20480;-67
2022/11/25 05:39:19;;;;;;;17.52;6.43;;;8.00;99.90;;;;;;5024396;28;20140;-67
2022/11/25 05:41:45;;;;;;;16.42;6.18;;;7.20;99.90;;;;;;5024330;28;20081;-66
2022/11/25 05:44:12;;;;;;;11.45;5.07;;;7.20;99.90;;;;;;5024124;28;20136;-67
2022/11/25 05:46:37;;;;;;;17.67;5.55;;;7.00;99.90;;;;;;5023771;28;20052;-67
2022/11/25 05:49:03;;;;;;;19.17;5.97;;;7.00;99.90;;;;;;5023636;28;20049;-66
2022/11/25 05:51:29;;;;;;;16.30;6.07;;;7.50;99.90;;;;;;5022583;28;20038;-67
2022/11/25 05:53:56;;;;;;;21.95;6.38;;;7.10;99.90;;;;;;5022307;28;20488;-68
2022/11/25 05:56:22;;;;;;;15.85;6.03;;;7.00;99.90;;;;;;5023255;28;20877;-68
2022/11/25 05:58:47;;;;;;;18.38;5.75;;;7.00;99.90;;;;;;5024636;28;20047;-67
2022/11/25 06:01:15;;;;;;;18.60;6.57;;;7.10;99.90;;;;;;5024194;28;20121;-67
2022/11/25 06:03:41;;;;;;;18.60;6.50;;;7.20;99.90;;;;;;5022775;28;20053;-67
2022/11/25 06:06:08;;;;;;;19.23;5.28;;;7.20;99.90;;;;;;5023597;28;20156;-68
2022/11/25 06:08:35;;;;;;;17.60;6.05;;;7.30;99.90;;;;;;5023696;28;20037;-67
2022/11/25 06:11:06;;;;;;;18.83;7.00;;;7.20;99.90;;;;;;5023431;28;20049;-67
2022/11/25 06:13:32;;;;;;;19.35;6.63;;;7.20;99.90;;;;;;5023884;28;20499;-68
2022/11/25 06:15:57;;;;;;;21.17;7.15;;;7.50;99.90;;;;;;5005450;28;20045;-67
2022/11/25 06:18:23;;;;;;;20.15;7.03;;;7.30;99.90;;;;;;5022746;28;20056;-67
2022/11/25 06:20:56;;;;;;;16.38;6.63;;;7.20;99.90;;;;;;5005648;28;20472;-67
2022/11/25 06:23:23;;;;;;;19.98;7.55;;;7.30;99.90;;;;;;5024030;28;20041;-67
2022/11/25 06:25:49;;;;;;;20.45;6.63;;;7.10;99.90;;;;;;5024108;28;20095;-67
2022/11/25 06:28:15;;;;;;;15.48;6.80;;;7.40;99.90;;;;;;5022615;28;20081;-67
2022/11/25 06:30:40;;;;;;;24.08;8.25;;;7.10;99.90;;;;;;5024788;28;20395;-67
2022/11/25 06:33:06;;;;;;;18.40;6.68;;;7.20;99.90;;;;;;5022736;28;20043;-67
2022/11/25 06:35:32;;;;;;;16.77;7.03;;;7.40;99.90;;;;;;5023340;28;20041;-66
2022/11/25 06:37:58;;;;;;;20.52;7.53;;;7.30;99.90;;;;;;5023123;28;20077;-67
2022/11/25 06:40:24;;;;;;;15.88;7.20;;;7.70;99.90;;;;;;5023746;28;20099;-66
2022/11/25 06:42:50;;;;;;;19.05;8.15;;;7.40;99.90;;;;;;5023283;28;20125;-67
2022/11/25 06:45:16;;;;;;;22.55;8.13;;;7.40;99.90;;;;;;5022414;28;20136;-67
2022/11/25 06:47:42;;;;;;;21.60;8.75;;;7.40;99.90;;;;;;5023539;28;20076;-67
2022/11/25 06:50:08;;;;;;;20.27;6.93;;;7.20;99.90;;;;;;5022523;28;20503;-66
2022/11/25 06:52:34;;;;;;;21.23;9.02;;;7.30;99.90;;;;;;5023554;28;20040;-66
2022/11/25 06:54:59;;;;;;;20.08;7.40;;;7.50;99.90;;;;;;5021220;28;20204;-67
2022/11/25 06:57:25;;;;;;;21.13;8.73;;;7.50;99.90;;;;;;5023548;28;20041;-68
2022/11/25 06:59:51;;;;;;;14.18;7.10;;;7.50;99.90;;;;;;5022614;28;20837;-66
2022/11/25 07:02:17;;;;;;;24.00;8.32;;;7.30;99.90;;;;;;5022289;28;20103;-67
2022/11/25 07:04:43;;;;;;;21.10;8.98;;;7.40;99.90;;;;;;5021191;28;20124;-67
2022/11/25 07:07:09;;;;;;;18.95;8.65;;;7.30;99.90;;;;;;5004528;28;20682;-68
2022/11/25 07:09:35;;;;;;;19.80;8.80;;;7.50;99.90;;;;;;5022618;28;20049;-66
2022/11/25 07:12:01;;;;;;;21.17;9.55;;;7.30;99.90;;;;;;5022549;28;20381;-67
2022/11/25 07:14:26;;;;;;;20.67;9.38;;;7.60;99.90;;;;;;5022239;28;20065;-67
2022/11/25 07:16:52;;;;;;;21.52;10.05;;;7.50;99.90;;;;;;5020813;28;20095;-67
2022/11/25 07:19:18;;;;;;;23.85;10.02;;;7.40;99.90;;;;;;5004327;28;20110;-68
2022/11/25 07:21:44;;;;;;;21.65;9.60;;;7.40;99.90;;;;;;5021811;28;20553;-67
2022/11/25 07:24:13;;;;;;;24.33;9.85;;;7.50;99.90;;;;;;5022669;28;20049;-68
2022/11/25 07:26:40;;;;;;;20.00;9.68;;;7.30;99.90;;;;;;5022465;28;20044;-67
2022/11/25 07:29:08;;;;;;;21.27;9.65;;;7.30;99.90;;;;;;5021582;28;20096;-66
2022/11/25 07:31:40;;;;;;;20.80;10.77;;;7.60;99.90;;;;;;5022122;28;20097;-67
2022/11/25 07:34:12;;;;;;;18.83;10.15;;;7.60;99.90;;;;;;5020978;28;20045;-67
2022/11/25 07:36:39;;;;;;;19.38;10.35;;;7.80;99.90;;;;;;5022128;28;20045;-68
2022/11/25 07:39:10;;;;;;;24.00;10.48;;;7.60;99.90;;;;;;5022088;28;20611;-67
2022/11/25 07:41:36;;;;;;;21.80;10.93;;;7.40;99.90;;;;;;5004598;28;20120;-68
2022/11/25 07:44:04;;;;;;;22.60;10.27;;;7.50;99.90;;;;;;5021959;28;20667;-67
2022/11/25 07:46:38;;;;;;;19.75;9.55;;;7.60;99.90;;;;;;5004593;28;20119;-68
2022/11/25 07:49:06;;;;;;;21.47;9.97;;;7.60;99.90;;;;;;5021971;28;20048;-67
2022/11/25 07:51:38;;;;;;;23.92;10.00;;;7.60;99.90;;;;;;5022413;28;20333;-66
2022/11/25 07:54:06;;;;;;;18.27;9.15;;;7.70;99.90;;;;;;5004462;28;20100;-68
2022/11/25 07:56:36;;;;;;;19.02;9.02;;;7.60;99.90;;;;;;5021651;28;20057;-68
2022/11/25 07:59:03;;;;;;;21.38;8.27;;;7.70;99.90;;;;;;5022243;28;20045;-67
2022/11/25 08:01:28;;;;;;;19.60;8.82;;;7.80;99.90;;;;;;5022036;28;20041;-67
2022/11/25 08:03:54;;;;;;;19.67;8.82;;;7.70;99.90;;;;;;5014647;28;20060;-67
2022/11/25 08:06:23;;;;;;;19.58;8.60;;;7.70;99.90;;;;;;5019520;28;20099;-68
2022/11/25 08:08:49;;;;;;;19.10;8.45;;;7.70;99.90;;;;;;4994907;28;20069;-68
2022/11/25 08:11:27;;;;;;;14.95;6.97;;;7.70;99.90;;;;;;5022505;28;20041;-67
2022/11/25 08:13:53;;;;;;;15.32;7.63;;;8.00;99.90;;;;;;5006228;28;20050;-67
2022/11/25 08:16:20;;;;;;;17.35;7.95;;;7.80;99.90;;;;;;5001732;28;20575;-67
2022/11/25 08:18:47;;;;;;;14.80;6.70;;;8.50;99.90;;;;;;4967222;28;20151;-68
2022/11/25 08:21:14;;;;;;;17.77;7.10;;;7.90;99.90;;;;;;5002038;28;20037;-68
2022/11/25 08:23:42;;;;;;;15.80;7.38;;;8.00;99.90;;;;;;4983943;28;20038;-66
2022/11/25 08:26:17;;;;;;;16.65;7.82;;;7.90;99.90;;;;;;4984678;28;20539;-68
2022/11/25 08:28:43;;;;;;;14.02;5.63;;;7.90;99.90;;;;;;5001766;28;20052;-67
2022/11/25 08:31:15;;;;;;;15.13;7.35;;;8.10;99.90;;;;;;5006382;28;20125;-68
2022/11/25 08:33:41;;;;;;;14.98;6.95;;;7.90;99.90;;;;;;5005444;28;20053;-69
2022/11/25 08:36:07;;;;;;;14.98;6.47;;;7.90;99.90;;;;;;5005685;28;20049;-68
2022/11/25 08:38:33;;;;;;;15.80;7.43;;;7.90;99.90;;;;;;5005366;28;20472;-68
2022/11/25 08:40:59;;;;;;;12.32;5.32;;;8.10;99.90;;;;;;5004111;28;20049;-67
2022/11/25 08:43:25;;;;;;;14.50;6.85;;;8.20;99.90;;;;;;5006072;28;20137;-69
2022/11/25 08:45:51;;;;;;;12.38;5.93;;;8.10;99.90;;;;;;5005487;28;20085;-67
2022/11/25 08:48:19;;;;;;;16.58;6.60;;;8.00;99.90;;;;;;5005034;28;20112;-69
2022/11/25 08:50:48;;;;;;;14.55;6.20;;;8.20;99.90;;;;;;4987228;28;20053;-67
2022/11/25 08:53:14;;;;;;;14.68;6.53;;;8.30;99.90;;;;;;5004882;28;20046;-66
2022/11/25 08:55:40;;;;;;;15.48;6.80;;;8.10;99.90;;;;;;5005754;28;20042;-68
2022/11/25 08:58:11;;;;;;;10.30;6.28;;;8.30;99.90;;;;;;5004573;28;20034;-68
2022/11/25 09:00:41;;;;;;;14.65;6.72;;;8.20;99.90;;;;;;5004923;28;20057;-67
2022/11/25 09:03:07;;;;;;;11.25;5.43;;;8.20;99.90;;;;;;5004705;28;20042;-67
2022/11/25 09:05:37;;;;;;;17.20;7.32;;;8.50;99.90;;;;;;5019023;28;20047;-69
2022/11/25 09:08:04;;;;;;;13.93;6.75;;;8.50;99.90;;;;;;5023752;28;20439;-68
2022/11/25 09:10:31;;;;;;;15.10;6.60;;;8.40;99.90;;;;;;5007868;28;20037;-68
2022/11/25 09:12:57;;;;;;;16.30;7.47;;;8.50;99.90;;;;;;5024132;28;20047;-67
2022/11/25 09:15:24;;;;;;;14.35;7.07;;;8.70;99.90;;;;;;5024456;28;20466;-59
2022/11/25 09:17:58;;;;;;;13.05;6.80;;;8.40;99.90;;;;;;5022840;28;20042;-65
2022/11/25 09:20:24;;;;;;;15.25;7.45;;;8.60;99.90;;;;;;5025266;28;20061;-64
2022/11/25 09:22:50;;;;;;;12.93;6.90;;;8.40;99.90;;;;;;5007485;28;20053;-64
2022/11/25 09:25:16;;;;;;;13.00;6.68;;;8.50;99.90;;;;;;5024288;28;20129;-66
2022/11/25 09:27:41;;;;;;;11.23;6.10;;;8.60;99.90;;;;;;5024430;28;20044;-65
2022/11/25 09:30:07;;;;;;;13.23;5.65;;;8.70;99.90;;;;;;5024141;28;20089;-66
2022/11/25 09:32:33;;;;;;;15.40;6.22;;;8.60;99.90;;;;;;5022364;28;20041;-65
2022/11/25 09:34:58;;;;;;;8.75;4.97;;;8.90;99.90;;;;;;5007492;28;20099;-65
2022/11/25 09:37:24;;;;;;;14.35;6.20;;;9.10;99.90;;;;;;5025105;28;20132;-64
2022/11/25 09:39:54;;;;;;;11.52;4.65;;;9.10;99.90;;;;;;5024056;28;20048;-65
2022/11/25 09:46:40;;;;;;;11.85;5.35;;;8.90;99.90;;;;;;5024518;28;20142;-66
2022/11/25 09:49:08;;;;;;;12.82;5.68;;;9.20;99.90;;;;;;5023755;28;20471;-64
2022/11/25 09:51:59;;;;;;;12.50;5.03;;;9.40;99.90;;;;;;5005965;28;20532;-65
2022/11/25 09:54:35;;;;;;;13.57;5.30;;;9.70;99.90;;;;;;5024679;28;20046;-66
2022/11/25 09:57:38;;;;;;;12.30;5.22;;;10.20;99.90;;;;;;5005438;28;20049;-65
2022/11/25 10:00:13;;;;;;;11.07;4.65;;;10.10;99.90;;;;;;5005744;28;20052;-63
2022/11/25 10:02:42;;;;;;;9.98;4.82;;;10.30;99.90;;;;;;5005447;28;20492;-63
2022/11/25 10:05:18;;;;;;;10.45;5.05;;;10.40;99.90;;;;;;5022139;28;20111;-65
2022/11/25 10:07:48;;;;;;;12.90;4.90;;;10.60;99.90;;;;;;5023037;28;20041;-64
2022/11/25 10:10:24;;;;;;;13.73;5.32;;;10.40;99.90;;;;;;5023452;28;20546;-64
2022/11/25 10:12:52;;;;;;;9.25;4.60;;;10.90;99.90;;;;;;5023792;28;20084;-64
2022/11/25 10:15:20;;;;;;;15.75;5.75;;;11.00;99.90;;;;;;5023656;28;20058;-64
2022/11/25 10:17:52;;;;;;;13.65;4.75;;;10.70;99.90;;;;;;5023472;28;20488;-64
2022/11/25 10:20:23;;;;;;;9.57;4.72;;;10.90;99.90;;;;;;5006358;28;20104;-63
2022/11/25 10:23:20;;;;;;;8.43;4.10;;;10.70;99.90;;;;;;5023642;28;20041;-66
2022/11/25 10:25:51;;;;;;;8.73;3.80;;;11.10;99.90;;;;;;5004809;28;20519;-66
2022/11/25 10:28:20;;;;;;;10.25;4.90;;;11.20;99.90;;;;;;5023680;28;20104;-66
2022/11/25 10:30:57;;;;;;;11.20;4.25;;;11.50;99.90;;;;;;5006504;28;20076;-66
2022/11/25 10:33:32;;;;;;;8.90;4.60;;;11.50;99.90;;;;;;5022533;28;20072;-66
2022/11/25 10:36:14;;;;;;;7.82;3.92;;;11.60;99.90;;;;;;5023874;28;20678;-65
2022/11/25 10:38:44;;;;;;;8.88;3.80;;;11.70;99.90;;;;;;5022027;28;20046;-65
2022/11/25 10:41:17;;;;;;;9.38;3.85;;;11.60;99.90;;;;;;5022271;28;20396;-66
2022/11/25 10:43:45;;;;;;;9.02;3.95;;;11.70;99.90;;;;;;5023442;28;20064;-66
2022/11/25 10:46:30;;;;;;;8.43;4.13;;;11.80;99.90;;;;;;5021085;28;20095;-66
2022/11/25 10:49:06;;;;;;;10.75;4.32;;;12.10;99.90;;;;;;5005017;28;20424;-66
2022/11/25 10:51:35;;;;;;;8.98;3.95;;;12.20;99.90;;;;;;5020063;28;20068;-67
2022/11/25 10:54:28;;;;;;;10.88;4.18;;;11.90;99.90;;;;;;5020744;28;20144;-66
2022/11/25 10:57:15;;;;;;;11.80;3.78;;;12.10;99.90;;;;;;5018062;28;20049;-67
2022/11/25 10:59:40;;;;;;;9.43;3.83;;;12.10;99.90;;;;;;5004514;28;20057;-67
2022/11/25 11:02:21;;;;;;;8.57;4.07;;;12.20;99.90;;;;;;5022430;28;20080;-66
2022/11/25 11:04:50;;;;;;;9.10;3.55;;;12.10;99.90;;;;;;5021832;28;20095;-66
2022/11/25 11:07:15;;;;;;;8.88;3.60;;;12.20;99.90;;;;;;5022483;28;20045;-66
2022/11/25 11:09:42;;;;;;;9.65;3.63;;;12.10;99.90;;;;;;5021621;28;20049;-66
2022/11/25 11:12:26;;;;;;;9.02;3.58;;;11.80;99.90;;;;;;5022063;28;20116;-66
2022/11/25 11:15:21;;;;;;;10.48;3.55;;;11.90;99.90;;;;;;5098891;27;20422;-66
2022/11/25 11:17:47;;;;;;;7.82;2.75;;;11.90;99.90;;;;;;5098545;28;20053;-66
2022/11/25 11:20:24;;;;;;;8.38;3.15;;;11.70;99.90;;;;;;5098020;28;20370;-66
2022/11/25 11:23:03;;;;;;;9.73;3.22;;;11.80;99.90;;;;;;5097592;28;20521;-67
2022/11/25 11:25:35;;;;;;;13.60;3.92;;;11.80;99.90;;;;;;5099490;28;20149;-66
2022/11/25 11:28:22;;;;;;;9.23;3.08;;;11.40;99.90;;;;;;5098498;28;20051;-66
2022/11/25 11:31:06;;;;;;;10.05;3.58;;;11.70;99.90;;;;;;5097537;28;20055;-68
2022/11/25 11:33:47;;;;;;;8.13;3.35;;;11.90;99.90;;;;;;5079856;28;20058;-67
2022/11/25 11:36:38;;;;;;;11.27;3.05;;;11.90;99.90;;;;;;5097590;28;20048;-66
2022/11/25 11:39:16;;;;;;;7.93;3.50;;;11.50;99.90;;;;;;5096905;28;20047;-67
2022/11/25 11:42:04;;;;;;;11.90;3.53;;;11.30;99.90;;;;;;5098919;28;20091;-67
2022/11/25 11:44:38;;;;;;;11.73;3.65;;;11.20;99.90;;;;;;5099022;28;20043;-67
2022/11/25 11:47:24;;;;;;;7.53;3.40;;;10.90;99.90;;;;;;5098140;28;20442;-68
2022/11/25 11:50:16;;;;;;;9.13;3.33;;;11.30;99.90;;;;;;5098203;28;20058;-67
2022/11/25 11:52:57;;;;;;;9.48;2.65;;;11.40;99.90;;;;;;5097995;28;20043;-67
2022/11/25 11:55:45;;;;;;;10.93;3.03;;;11.50;99.90;;;;;;5098597;28;20169;-66
2022/11/25 11:58:30;;;;;;;10.93;3.20;;;11.20;99.90;;;;;;5089915;28;20036;-67
2022/11/25 12:01:25;;;;;;;16.08;3.42;;;11.50;99.90;;;;;;5096701;28;20051;-67
2022/11/25 12:04:04;;;;;;;12.25;3.47;;;11.40;99.90;;;;;;5094744;28;20066;-68
2022/11/25 12:06:33;;;;;;;9.63;3.15;;;11.30;99.90;;;;;;5087205;28;20098;-68
2022/11/25 12:09:14;;;;;;;8.73;3.20;;;11.30;99.90;;;;;;5098185;28;20036;-66
2022/11/25 12:11:45;;;;;;;10.55;2.83;;;11.10;99.90;;;;;;5097809;28;20075;-67
2022/11/25 12:14:30;;;;;;;9.75;3.00;;;11.30;99.90;;;;;;5095458;28;20063;-68
2022/11/25 12:16:59;;;;;;;8.98;2.83;;;11.40;99.90;;;;;;5075962;28;20041;-67
2022/11/25 12:19:46;;;;;;;14.25;3.60;;;11.60;99.90;;;;;;5076541;28;20088;-67
2022/11/25 12:22:41;;;;;;;9.85;3.45;;;11.50;99.90;;;;;;5075996;28;20052;-67
2022/11/25 12:25:20;;;;;;;10.68;2.95;;;11.40;99.90;;;;;;5103505;28;20479;-67
2022/11/25 12:27:53;;;;;;;13.63;3.03;;;11.40;99.90;;;;;;5062025;28;20063;-67
2022/11/25 12:30:21;;;;;;;10.95;3.05;;;11.20;99.90;;;;;;5062990;28;20052;-67
2022/11/25 12:33:07;;;;;;;10.30;3.17;;;11.20;99.90;;;;;;5078414;28;20048;-67
2022/11/25 12:35:50;;;;;;;12.32;4.13;;;11.00;99.90;;;;;;5063414;28;20040;-67
2022/11/25 12:38:26;;;;;;;7.63;3.05;;;10.90;99.90;;;;;;5063677;28;20048;-67
2022/11/25 12:40:59;;;;;;;11.20;2.83;;;11.00;99.90;;;;;;5061743;28;20040;-67
2022/11/25 12:43:36;;;;;;;10.98;3.67;;;10.90;99.90;;;;;;5062788;28;20580;-65
2022/11/25 12:46:10;;;;;;;11.63;3.80;;;10.80;99.90;;;;;;5063575;28;20049;-64
2022/11/25 12:48:40;;;;;;;8.65;2.70;;;10.80;99.90;;;;;;5062622;28;20041;-64
2022/11/25 12:51:54;;;;;;;8.52;2.60;;;10.80;99.90;;;;;;5065494;28;20038;-64
2022/11/25 12:54:47;;;;;;;12.43;2.83;;;11.00;99.90;;;;;;5040376;28;20045;-64
2022/11/25 12:57:18;;;;;;;9.55;3.40;;;11.00;99.90;;;;;;5040863;28;20059;-66
2022/11/25 13:00:28;;;;;;;11.45;3.03;;;11.00;99.90;;;;;;5070371;28;20418;-67
2022/11/25 13:03:21;;;;;;;11.40;2.92;;;11.20;99.90;;;;;;5081140;28;20056;-66
2022/11/25 13:06:02;;;;;;;13.40;3.22;;;11.20;99.90;;;;;;5075504;28;20558;-68
2022/11/25 13:09:03;;;;;;;12.98;3.47;;;11.00;99.90;;;;;;5062523;28;20152;-68
2022/11/25 13:12:13;;;;;;;12.32;3.03;;;11.00;99.90;;;;;;5061876;28;20082;-68